Hub, New York
Current Conditions -  °F | °C
As of 5:51 PM on Wednesday 22 Oct 2014 (Local Time) from KLGA Reporting Station
Moderate Rain Moderate Rain  
Wind Chill: 53°   Ceiling: 1900
Heat Index: 53°   Visibility: 6mi
Dew Point: 50°   Wind: 14mph
Humidity: 89%   Direction: 360°N
Pressure: 29.82"   Gusts: NA
Location:  40.8147°N, 73.9084°W
Report Text: KLGA 222151Z 36012KT 6SM RA BR BKN019 OVC026 12/10 A2982 RMK AO2 SLP097 P0009 T01170100
Loading
Personal Weather Stations






























Interactive Weather Map
Tropical Storm Tracking
New forecast layout! Learn more

10-Day Weather Forecast

Advertisements
Track Severe Weather on mobile